M I D A S
Marine Information and Data Acquisition System
Tripno 461 of the Zeeleeuw from 2003-04-14 08:48:46 to 2003-04-14 14:26:54
Back to CruiseResearch ActivitiesStationsMapUnderway DataData graphs

EquipmentUnitsComments
TimeDGPSUTC
LatitudeDGPSDM.mWGS84
LongitudeDGPSDM.mWGS84
SpeedMeteo Stationm/sRelative wind speed
DirectionMeteo StationdegRelative wind direction
TemperatureMeteo Stationdeg CelciusAir temperature
PressureMeteo StationPaAtmospheric pressure
HumidityMeteo Station%Relative humidity
Missing or incorrect values are displayed as -999
Metereological data collected by the RV Zeeleeuw from 2003-04-14 08:48:46 to 2003-04-14 14:26:54
Time Latitude Longitude Speed Direction Temperature Pressure Humidity
2003-04-14 08:49 51°13.61 2°56.06 -999 -999 -999 -999 -999
2003-04-14 08:50 51°13.64 2°55.95 -999 -999 -999 -999 -999
2003-04-14 08:51 51°13.67 2°55.84 -999 -999 -999 -999 -999
2003-04-14 08:52 51°13.69 2°55.75 -999 -999 -999 -999 -999
2003-04-14 08:53 51°13.7 2°55.74 -999 -999 -999 -999 -999
2003-04-14 08:54 51°13.72 2°55.73 -999 -999 -999 -999 -999
2003-04-14 08:55 51°13.78 2°55.68 -999 -999 -999 -999 -999
2003-04-14 08:56 51°13.88 2°55.6 -999 -999 -999 -999 -999
2003-04-14 08:57 51°14.02 2°55.5 -999 -999 -999 -999 -999
2003-04-14 08:58 51°14.16 2°55.39 -999 -999 -999 -999 -999
2003-04-14 08:59 51°14.28 2°55.22 -999 -999 -999 -999 -999
2003-04-14 09:00 51°14.38 2°55.03 -999 -999 -999 -999 -999
2003-04-14 09:01 51°14.54 2°54.93 -999 -999 -999 -999 -999
2003-04-14 09:02 51°14.68 2°54.84 -999 -999 -999 -999 -999
2003-04-14 09:03 51°14.79 2°54.85 -999 -999 -999 -999 -999
2003-04-14 09:04 51°14.87 2°54.88 -999 -999 -999 -999 -999
2003-04-14 09:05 51°14.94 2°54.92 -999 -999 -999 -999 -999
2003-04-14 09:06 51°14.99 2°54.95 -999 -999 -999 -999 -999
2003-04-14 09:07 51°15.07 2°54.95 -999 -999 -999 -999 -999
2003-04-14 09:08 51°15.22 2°54.79 -999 -999 -999 -999 -999
2003-04-14 09:09 51°15.38 2°54.59 -999 -999 -999 -999 -999
2003-04-14 09:10 51°15.54 2°54.4 -999 -999 -999 -999 -999
2003-04-14 09:11 51°15.71 2°54.21 -999 -999 -999 -999 -999
2003-04-14 09:12 51°15.89 2°54.02 -999 -999 -999 -999 -999
2003-04-14 09:13 51°16.08 2°53.82 -999 -999 -999 -999 -999
2003-04-14 09:14 51°16.27 2°53.62 -999 -999 -999 -999 -999
2003-04-14 09:15 51°16.46 2°53.42 -999 -999 -999 -999 -999
2003-04-14 09:16 51°16.64 2°53.21 -999 -999 -999 -999 -999
2003-04-14 09:17 51°16.82 2°53 -999 -999 -999 -999 -999
2003-04-14 09:18 51°16.99 2°52.78 -999 -999 -999 -999 -999
2003-04-14 09:19 51°17.17 2°52.55 -999 -999 -999 -999 -999
2003-04-14 09:20 51°17.34 2°52.31 -999 -999 -999 -999 -999
2003-04-14 09:21 51°17.5 2°52.06 -999 -999 -999 -999 -999
2003-04-14 09:22 51°17.66 2°51.81 -999 -999 -999 -999 -999
2003-04-14 09:23 51°17.82 2°51.56 -999 -999 -999 -999 -999
2003-04-14 09:24 51°17.98 2°51.31 -999 -999 -999 -999 -999
2003-04-14 09:25 51°18.14 2°51.06 -999 -999 -999 -999 -999
2003-04-14 09:26 51°18.3 2°50.81 -999 -999 -999 -999 -999
2003-04-14 09:27 51°18.47 2°50.57 -999 -999 -999 -999 -999
2003-04-14 09:28 51°18.63 2°50.32 -999 -999 -999 -999 -999
2003-04-14 09:29 51°18.8 2°50.07 -999 -999 -999 -999 -999
2003-04-14 09:30 51°18.96 2°49.83 -999 -999 -999 -999 -999
2003-04-14 09:31 51°19.12 2°49.58 -999 -999 -999 -999 -999
2003-04-14 09:32 51°19.28 2°49.34 -999 -999 -999 -999 -999
2003-04-14 09:33 51°19.43 2°49.09 -999 -999 -999 -999 -999
2003-04-14 09:34 51°19.39 2°48.95 -999 -999 -999 -999 -999
2003-04-14 09:35 51°19.34 2°49.03 -999 -999 -999 -999 -999
2003-04-14 09:36 51°19.34 2°49.07 -999 -999 -999 -999 -999
2003-04-14 09:37 51°19.36 2°49.12 -999 -999 -999 -999 -999
2003-04-14 09:38 51°19.35 2°49.13 -999 -999 -999 -999 -999
2003-04-14 09:39 51°19.35 2°49.15 -999 -999 -999 -999 -999
2003-04-14 09:40 51°19.36 2°49.16 -999 -999 -999 -999 -999
2003-04-14 09:41 51°19.36 2°49.17 -999 -999 -999 -999 -999
2003-04-14 09:42 51°19.37 2°49.19 -999 -999 -999 -999 -999
2003-04-14 09:43 51°19.38 2°49.21 -999 -999 -999 -999 -999
2003-04-14 09:44 51°19.39 2°49.22 -999 -999 -999 -999 -999
2003-04-14 09:45 51°19.4 2°49.23 -999 -999 -999 -999 -999
2003-04-14 09:46 51°19.41 2°49.25 -999 -999 -999 -999 -999
2003-04-14 09:47 51°19.42 2°49.26 -999 -999 -999 -999 -999
2003-04-14 09:48 51°19.46 2°49.25 -999 -999 -999 -999 -999
2003-04-14 09:49 51°19.58 2°49.09 -999 -999 -999 -999 -999
2003-04-14 09:50 51°19.69 2°48.79 -999 -999 -999 -999 -999
2003-04-14 09:51 51°19.78 2°48.47 -999 -999 -999 -999 -999
2003-04-14 09:52 51°19.84 2°48.13 -999 -999 -999 -999 -999
2003-04-14 09:53 51°19.87 2°47.9 -999 -999 -999 -999 -999
2003-04-14 09:54 51°19.87 2°47.82 -999 -999 -999 -999 -999
2003-04-14 09:55 51°19.87 2°47.81 -999 -999 -999 -999 -999
2003-04-14 09:56 51°19.88 2°47.8 -999 -999 -999 -999 -999
2003-04-14 09:57 51°19.88 2°47.8 -999 -999 -999 -999 -999
2003-04-14 09:58 51°19.88 2°47.81 -999 -999 -999 -999 -999
2003-04-14 09:59 51°19.88 2°47.82 -999 -999 -999 -999 -999
2003-04-14 10:00 51°19.88 2°47.83 -999 -999 -999 -999 -999
2003-04-14 10:01 51°19.88 2°47.85 -999 -999 -999 -999 -999
2003-04-14 10:02 51°19.88 2°47.86 -999 -999 -999 -999 -999
2003-04-14 10:03 51°19.89 2°47.88 -999 -999 -999 -999 -999
2003-04-14 10:04 51°19.89 2°47.9 -999 -999 -999 -999 -999
2003-04-14 10:05 51°19.89 2°47.93 -999 -999 -999 -999 -999
2003-04-14 10:06 51°19.9 2°47.95 -999 -999 -999 -999 -999
2003-04-14 10:07 51°19.9 2°47.97 -999 -999 -999 -999 -999
2003-04-14 10:08 51°19.91 2°47.99 -999 -999 -999 -999 -999
2003-04-14 10:09 51°19.91 2°48.02 -999 -999 -999 -999 -999
2003-04-14 10:10 51°19.92 2°48.05 -999 -999 -999 -999 -999
2003-04-14 10:11 51°19.92 2°48.07 -999 -999 -999 -999 -999
2003-04-14 10:12 51°19.93 2°48.1 -999 -999 -999 -999 -999
2003-04-14 10:13 51°19.94 2°48.13 -999 -999 -999 -999 -999
2003-04-14 10:14 51°19.95 2°48.16 -999 -999 -999 -999 -999
2003-04-14 10:15 51°19.95 2°48.19 -999 -999 -999 -999 -999
2003-04-14 10:16 51°19.96 2°48.22 -999 -999 -999 -999 -999
2003-04-14 10:17 51°19.97 2°48.25 -999 -999 -999 -999 -999
2003-04-14 10:18 51°19.98 2°48.27 -999 -999 -999 -999 -999
2003-04-14 10:19 51°19.99 2°48.3 -999 -999 -999 -999 -999
2003-04-14 10:20 51°19.99 2°48.33 -999 -999 -999 -999 -999
2003-04-14 10:21 51°19.99 2°48.37 -999 -999 -999 -999 -999
2003-04-14 10:22 51°19.99 2°48.41 -999 -999 -999 -999 -999
2003-04-14 10:23 51°19.98 2°48.45 -999 -999 -999 -999 -999
2003-04-14 10:24 51°19.97 2°48.49 -999 -999 -999 -999 -999
2003-04-14 10:25 51°19.96 2°48.53 -999 -999 -999 -999 -999
2003-04-14 10:26 51°19.95 2°48.57 -999 -999 -999 -999 -999
2003-04-14 10:27 51°19.93 2°48.6 -999 -999 -999 -999 -999
2003-04-14 10:28 51°19.92 2°48.63 -999 -999 -999 -999 -999
2003-04-14 10:29 51°19.91 2°48.67 -999 -999 -999 -999 -999
2003-04-14 10:30 51°19.87 2°48.69 -999 -999 -999 -999 -999
2003-04-14 10:31 51°19.77 2°48.61 -999 -999 -999 -999 -999
2003-04-14 10:32 51°19.68 2°48.45 -999 -999 -999 -999 -999
2003-04-14 10:33 51°19.6 2°48.22 -999 -999 -999 -999 -999
2003-04-14 10:34 51°19.53 2°47.97 -999 -999 -999 -999 -999
2003-04-14 10:35 51°19.45 2°47.71 -999 -999 -999 -999 -999
2003-04-14 10:36 51°19.37 2°47.42 -999 -999 -999 -999 -999
2003-04-14 10:37 51°19.28 2°47.13 -999 -999 -999 -999 -999
2003-04-14 10:38 51°19.19 2°46.84 -999 -999 -999 -999 -999
2003-04-14 10:39 51°19.08 2°46.57 -999 -999 -999 -999 -999
2003-04-14 10:40 51°18.91 2°46.41 -999 -999 -999 -999 -999
2003-04-14 10:41 51°18.7 2°46.35 -999 -999 -999 -999 -999
2003-04-14 10:42 51°18.49 2°46.31 -999 -999 -999 -999 -999
2003-04-14 10:43 51°18.29 2°46.27 -999 -999 -999 -999 -999
2003-04-14 10:44 51°18.11 2°46.12 -999 -999 -999 -999 -999
2003-04-14 10:45 51°18 2°45.86 -999 -999 -999 -999 -999
2003-04-14 10:46 51°17.91 2°45.56 -999 -999 -999 -999 -999
2003-04-14 10:47 51°17.82 2°45.27 -999 -999 -999 -999 -999
2003-04-14 10:48 51°17.74 2°44.97 -999 -999 -999 -999 -999
2003-04-14 10:49 51°17.65 2°44.68 -999 -999 -999 -999 -999
2003-04-14 10:50 51°17.56 2°44.38 -999 -999 -999 -999 -999
2003-04-14 10:51 51°17.48 2°44.08 -999 -999 -999 -999 -999
2003-04-14 10:52 51°17.33 2°43.85 -999 -999 -999 -999 -999
2003-04-14 10:53 51°17.12 2°43.79 -999 -999 -999 -999 -999
2003-04-14 10:54 51°16.91 2°43.75 -999 -999 -999 -999 -999
2003-04-14 10:55 51°16.7 2°43.69 -999 -999 -999 -999 -999
2003-04-14 10:56 51°16.49 2°43.63 -999 -999 -999 -999 -999
2003-04-14 10:57 51°16.28 2°43.57 -999 -999 -999 -999 -999
2003-04-14 10:58 51°16.07 2°43.51 -999 -999 -999 -999 -999
2003-04-14 10:59 51°15.86 2°43.46 -999 -999 -999 -999 -999
2003-04-14 11:00 51°15.66 2°43.4 -999 -999 -999 -999 -999
2003-04-14 11:01 51°15.45 2°43.33 -999 -999 -999 -999 -999
2003-04-14 11:02 51°15.24 2°43.25 -999 -999 -999 -999 -999
2003-04-14 11:03 51°15.04 2°43.15 -999 -999 -999 -999 -999
2003-04-14 11:04 51°14.89 2°42.93 -999 -999 -999 -999 -999
2003-04-14 11:05 51°14.79 2°42.64 -999 -999 -999 -999 -999
2003-04-14 11:06 51°14.71 2°42.34 -999 -999 -999 -999 -999
2003-04-14 11:07 51°14.62 2°42.05 -999 -999 -999 -999 -999
2003-04-14 11:08 51°14.54 2°41.75 -999 -999 -999 -999 -999
2003-04-14 11:09 51°14.46 2°41.44 -999 -999 -999 -999 -999
2003-04-14 11:10 51°14.37 2°41.14 -999 -999 -999 -999 -999
2003-04-14 11:11 51°14.29 2°40.84 -999 -999 -999 -999 -999
2003-04-14 11:12 51°14.2 2°40.53 -999 -999 -999 -999 -999
2003-04-14 11:13 51°14.12 2°40.22 -999 -999 -999 -999 -999
2003-04-14 11:14 51°14.03 2°39.91 -999 -999 -999 -999 -999
2003-04-14 11:15 51°13.95 2°39.6 -999 -999 -999 -999 -999
2003-04-14 11:16 51°13.86 2°39.28 -999 -999 -999 -999 -999
2003-04-14 11:17 51°13.78 2°38.96 -999 -999 -999 -999 -999
2003-04-14 11:18 51°13.64 2°38.72 -999 -999 -999 -999 -999
2003-04-14 11:19 51°13.45 2°38.57 -999 -999 -999 -999 -999
2003-04-14 11:20 51°13.26 2°38.39 -999 -999 -999 -999 -999
2003-04-14 11:21 51°13.08 2°38.2 -999 -999 -999 -999 -999
2003-04-14 11:22 51°12.9 2°38.01 -999 -999 -999 -999 -999
2003-04-14 11:23 51°12.72 2°37.83 -999 -999 -999 -999 -999
2003-04-14 11:24 51°12.54 2°37.66 -999 -999 -999 -999 -999
2003-04-14 11:25 51°12.36 2°37.48 -999 -999 -999 -999 -999
2003-04-14 11:26 51°12.17 2°37.3 -999 -999 -999 -999 -999
2003-04-14 11:27 51°11.98 2°37.13 -999 -999 -999 -999 -999
2003-04-14 11:28 51°11.79 2°36.97 -999 -999 -999 -999 -999
2003-04-14 11:29 51°11.6 2°36.81 -999 -999 -999 -999 -999
2003-04-14 11:30 51°11.41 2°36.64 -999 -999 -999 -999 -999
2003-04-14 11:31 51°11.23 2°36.47 -999 -999 -999 -999 -999
2003-04-14 11:32 51°11.04 2°36.3 -999 -999 -999 -999 -999
2003-04-14 11:33 51°10.86 2°36.14 -999 -999 -999 -999 -999
2003-04-14 11:34 51°10.67 2°35.98 -999 -999 -999 -999 -999
2003-04-14 11:35 51°10.49 2°35.84 -999 -999 -999 -999 -999
2003-04-14 11:36 51°10.29 2°35.76 -999 -999 -999 -999 -999
2003-04-14 11:37 51°10.08 2°35.78 -999 -999 -999 -999 -999
2003-04-14 11:38 51°9.88 2°35.95 -999 -999 -999 -999 -999
2003-04-14 11:39 51°9.76 2°36.26 -999 -999 -999 -999 -999
2003-04-14 11:40 51°9.7 2°36.63 -999 -999 -999 -999 -999
2003-04-14 11:41 51°9.65 2°36.9 -999 -999 -999 -999 -999
2003-04-14 11:42 51°9.6 2°36.99 -999 -999 -999 -999 -999
2003-04-14 11:43 51°9.57 2°37.02 -999 -999 -999 -999 -999
2003-04-14 11:44 51°9.54 2°37.02 -999 -999 -999 -999 -999
2003-04-14 11:45 51°9.53 2°37.01 -999 -999 -999 -999 -999
2003-04-14 11:46 51°9.53 2°36.99 -999 -999 -999 -999 -999
2003-04-14 11:47 51°9.53 2°36.98 -999 -999 -999 -999 -999
2003-04-14 11:48 51°9.51 2°36.95 -999 -999 -999 -999 -999
2003-04-14 11:49 51°9.47 2°36.9 -999 -999 -999 -999 -999
2003-04-14 11:50 51°9.45 2°36.83 -999 -999 -999 -999 -999
2003-04-14 11:51 51°9.44 2°36.75 -999 -999 -999 -999 -999
2003-04-14 11:52 51°9.42 2°36.69 -999 -999 -999 -999 -999
2003-04-14 11:53 51°9.4 2°36.64 -999 -999 -999 -999 -999
2003-04-14 11:54 51°9.38 2°36.59 -999 -999 -999 -999 -999
2003-04-14 11:55 51°9.36 2°36.53 -999 -999 -999 -999 -999
2003-04-14 11:56 51°9.35 2°36.47 -999 -999 -999 -999 -999
2003-04-14 11:57 51°9.33 2°36.42 -999 -999 -999 -999 -999
2003-04-14 11:58 51°9.31 2°36.36 -999 -999 -999 -999 -999
2003-04-14 11:59 51°9.29 2°36.31 -999 -999 -999 -999 -999
2003-04-14 12:00 51°9.27 2°36.25 -999 -999 -999 -999 -999
2003-04-14 12:01 51°9.26 2°36.19 -999 -999 -999 -999 -999
2003-04-14 12:02 51°9.24 2°36.14 -999 -999 -999 -999 -999
2003-04-14 12:03 51°9.22 2°36.08 -999 -999 -999 -999 -999
2003-04-14 12:04 51°9.2 2°36.03 -999 -999 -999 -999 -999
2003-04-14 12:05 51°9.18 2°35.97 -999 -999 -999 -999 -999
2003-04-14 12:06 51°9.16 2°35.92 -999 -999 -999 -999 -999
2003-04-14 12:07 51°9.14 2°35.86 -999 -999 -999 -999 -999
2003-04-14 12:08 51°9.12 2°35.8 -999 -999 -999 -999 -999
2003-04-14 12:09 51°9.1 2°35.75 -999 -999 -999 -999 -999
2003-04-14 12:10 51°9.08 2°35.69 -999 -999 -999 -999 -999
2003-04-14 12:11 51°9.06 2°35.64 -999 -999 -999 -999 -999
2003-04-14 12:12 51°9.04 2°35.58 -999 -999 -999 -999 -999
2003-04-14 12:13 51°9.02 2°35.52 -999 -999 -999 -999 -999
2003-04-14 12:14 51°9 2°35.47 -999 -999 -999 -999 -999
2003-04-14 12:15 51°8.98 2°35.41 -999 -999 -999 -999 -999
2003-04-14 12:16 51°8.96 2°35.36 -999 -999 -999 -999 -999
2003-04-14 12:17 51°8.94 2°35.3 -999 -999 -999 -999 -999
2003-04-14 12:18 51°8.92 2°35.24 -999 -999 -999 -999 -999
2003-04-14 12:19 51°8.9 2°35.18 -999 -999 -999 -999 -999
2003-04-14 12:20 51°8.87 2°35.13 -999 -999 -999 -999 -999
2003-04-14 12:21 51°8.86 2°35.08 -999 -999 -999 -999 -999
2003-04-14 12:22 51°8.85 2°35.03 -999 -999 -999 -999 -999
2003-04-14 12:23 51°8.84 2°35 -999 -999 -999 -999 -999
2003-04-14 12:24 51°8.83 2°34.96 -999 -999 -999 -999 -999
2003-04-14 12:25 51°8.82 2°34.94 -999 -999 -999 -999 -999
2003-04-14 12:26 51°8.8 2°34.91 -999 -999 -999 -999 -999
2003-04-14 12:27 51°8.79 2°34.8 -999 -999 -999 -999 -999
2003-04-14 12:28 51°8.83 2°34.7 -999 -999 -999 -999 -999
2003-04-14 12:29 51°8.88 2°34.67 -999 -999 -999 -999 -999
2003-04-14 12:30 51°8.92 2°34.66 -999 -999 -999 -999 -999
2003-04-14 12:31 51°8.96 2°34.66 -999 -999 -999 -999 -999
2003-04-14 12:32 51°8.99 2°34.67 -999 -999 -999 -999 -999
2003-04-14 12:33 51°9.05 2°34.72 -999 -999 -999 -999 -999
2003-04-14 12:34 51°9.1 2°34.8 -999 -999 -999 -999 -999
2003-04-14 12:35 51°9.16 2°34.91 -999 -999 -999 -999 -999
2003-04-14 12:36 51°9.2 2°35 -999 -999 -999 -999 -999
2003-04-14 12:37 51°9.23 2°35.06 -999 -999 -999 -999 -999
2003-04-14 12:38 51°9.26 2°35.12 -999 -999 -999 -999 -999
2003-04-14 12:39 51°9.29 2°35.15 -999 -999 -999 -999 -999
2003-04-14 12:40 51°9.32 2°35.21 -999 -999 -999 -999 -999
2003-04-14 12:41 51°9.35 2°35.27 -999 -999 -999 -999 -999
2003-04-14 12:42 51°9.37 2°35.31 -999 -999 -999 -999 -999
2003-04-14 12:43 51°9.4 2°35.35 -999 -999 -999 -999 -999
2003-04-14 12:44 51°9.41 2°35.37 -999 -999 -999 -999 -999
2003-04-14 12:45 51°9.43 2°35.41 -999 -999 -999 -999 -999
2003-04-14 12:46 51°9.51 2°35.62 -999 -999 -999 -999 -999
2003-04-14 12:47 51°9.61 2°35.91 -999 -999 -999 -999 -999
2003-04-14 12:48 51°9.73 2°36.24 -999 -999 -999 -999 -999
2003-04-14 12:49 51°9.83 2°36.58 -999 -999 -999 -999 -999
2003-04-14 12:50 51°9.93 2°36.93 -999 -999 -999 -999 -999
2003-04-14 12:51 51°10.04 2°37.27 -999 -999 -999 -999 -999
2003-04-14 12:52 51°10.14 2°37.62 -999 -999 -999 -999 -999
2003-04-14 12:53 51°10.24 2°37.95 -999 -999 -999 -999 -999
2003-04-14 12:54 51°10.34 2°38.29 -999 -999 -999 -999 -999
2003-04-14 12:55 51°10.4 2°38.64 -999 -999 -999 -999 -999
2003-04-14 12:56 51°10.46 2°39 -999 -999 -999 -999 -999
2003-04-14 12:57 51°10.52 2°39.37 -999 -999 -999 -999 -999
2003-04-14 12:58 51°10.58 2°39.73 -999 -999 -999 -999 -999
2003-04-14 12:59 51°10.63 2°40.09 -999 -999 -999 -999 -999
2003-04-14 13:00 51°10.7 2°40.46 -999 -999 -999 -999 -999
2003-04-14 13:01 51°10.76 2°40.82 -999 -999 -999 -999 -999
2003-04-14 13:02 51°10.86 2°41.02 -999 -999 -999 -999 -999
2003-04-14 13:03 51°10.92 2°40.96 -999 -999 -999 -999 -999
2003-04-14 13:04 51°10.91 2°40.86 -999 -999 -999 -999 -999
2003-04-14 13:05 51°10.82 2°40.79 -999 -999 -999 -999 -999
2003-04-14 13:06 51°10.74 2°40.85 -999 -999 -999 -999 -999
2003-04-14 13:07 51°10.74 2°40.91 -999 -999 -999 -999 -999
2003-04-14 13:08 51°10.74 2°40.92 -999 -999 -999 -999 -999
2003-04-14 13:09 51°10.75 2°40.93 -999 -999 -999 -999 -999
2003-04-14 13:10 51°10.76 2°40.94 -999 -999 -999 -999 -999
2003-04-14 13:11 51°10.76 2°40.95 -999 -999 -999 -999 -999
2003-04-14 13:12 51°10.77 2°40.95 -999 -999 -999 -999 -999
2003-04-14 13:13 51°10.78 2°40.96 -999 -999 -999 -999 -999
2003-04-14 13:14 51°10.79 2°40.96 -999 -999 -999 -999 -999
2003-04-14 13:15 51°10.8 2°40.96 -999 -999 -999 -999 -999
2003-04-14 13:16 51°10.82 2°40.96 -999 -999 -999 -999 -999
2003-04-14 13:17 51°10.83 2°40.97 -999 -999 -999 -999 -999
2003-04-14 13:18 51°10.84 2°40.97 -999 -999 -999 -999 -999
2003-04-14 13:19 51°10.86 2°40.98 -999 -999 -999 -999 -999
2003-04-14 13:20 51°10.87 2°40.98 -999 -999 -999 -999 -999
2003-04-14 13:21 51°10.88 2°40.99 -999 -999 -999 -999 -999
2003-04-14 13:22 51°10.9 2°40.99 -999 -999 -999 -999 -999
2003-04-14 13:23 51°10.91 2°41 -999 -999 -999 -999 -999
2003-04-14 13:24 51°10.92 2°41.01 -999 -999 -999 -999 -999
2003-04-14 13:25 51°10.93 2°41.01 -999 -999 -999 -999 -999
2003-04-14 13:26 51°10.95 2°41.01 -999 -999 -999 -999 -999
2003-04-14 13:27 51°10.96 2°41.02 -999 -999 -999 -999 -999
2003-04-14 13:28 51°10.97 2°41.02 -999 -999 -999 -999 -999
2003-04-14 13:29 51°10.98 2°41.02 -999 -999 -999 -999 -999
2003-04-14 13:30 51°10.99 2°41.02 -999 -999 -999 -999 -999
2003-04-14 13:31 51°11.01 2°41.02 -999 -999 -999 -999 -999
2003-04-14 13:32 51°11.02 2°41.02 -999 -999 -999 -999 -999
2003-04-14 13:33 51°11.04 2°41.03 -999 -999 -999 -999 -999
2003-04-14 13:34 51°11.05 2°41.03 -999 -999 -999 -999 -999
2003-04-14 13:35 51°11.06 2°41.03 -999 -999 -999 -999 -999
2003-04-14 13:36 51°11.07 2°41.03 -999 -999 -999 -999 -999
2003-04-14 13:37 51°11.09 2°41.03 -999 -999 -999 -999 -999
2003-04-14 13:38 51°11.15 2°41.13 -999 -999 -999 -999 -999
2003-04-14 13:39 51°11.17 2°41.43 -999 -999 -999 -999 -999
2003-04-14 13:40 51°11.2 2°41.8 -999 -999 -999 -999 -999
2003-04-14 13:41 51°11.23 2°42.16 -999 -999 -999 -999 -999
2003-04-14 13:42 51°11.25 2°42.53 -999 -999 -999 -999 -999
2003-04-14 13:43 51°11.28 2°42.9 -999 -999 -999 -999 -999
2003-04-14 13:44 51°11.3 2°43.26 -999 -999 -999 -999 -999
2003-04-14 13:45 51°11.34 2°43.63 -999 -999 -999 -999 -999
2003-04-14 13:46 51°11.39 2°43.98 -999 -999 -999 -999 -999
2003-04-14 13:47 51°11.44 2°44.34 -999 -999 -999 -999 -999
2003-04-14 13:48 51°11.5 2°44.69 -999 -999 -999 -999 -999
2003-04-14 13:49 51°11.57 2°45.03 -999 -999 -999 -999 -999
2003-04-14 13:50 51°11.64 2°45.38 -999 -999 -999 -999 -999
2003-04-14 13:51 51°11.71 2°45.73 -999 -999 -999 -999 -999
2003-04-14 13:52 51°11.78 2°46.07 -999 -999 -999 -999 -999
2003-04-14 13:53 51°11.87 2°46.4 -999 -999 -999 -999 -999
2003-04-14 13:54 51°11.97 2°46.73 -999 -999 -999 -999 -999
2003-04-14 13:55 51°12.06 2°47.06 -999 -999 -999 -999 -999
2003-04-14 13:56 51°12.15 2°47.39 -999 -999 -999 -999 -999
2003-04-14 13:57 51°12.24 2°47.72 -999 -999 -999 -999 -999
2003-04-14 13:58 51°12.34 2°48.05 -999 -999 -999 -999 -999
2003-04-14 13:59 51°12.43 2°48.38 -999 -999 -999 -999 -999
2003-04-14 14:00 51°12.53 2°48.71 -999 -999 -999 -999 -999
2003-04-14 14:01 51°12.64 2°49.02 -999 -999 -999 -999 -999
2003-04-14 14:02 51°12.74 2°49.34 -999 -999 -999 -999 -999
2003-04-14 14:03 51°12.85 2°49.65 -999 -999 -999 -999 -999
2003-04-14 14:04 51°12.96 2°49.97 -999 -999 -999 -999 -999
2003-04-14 14:05 51°13.08 2°50.28 -999 -999 -999 -999 -999
2003-04-14 14:06 51°13.19 2°50.59 -999 -999 -999 -999 -999
2003-04-14 14:07 51°13.29 2°50.91 -999 -999 -999 -999 -999
2003-04-14 14:08 51°13.4 2°51.22 -999 -999 -999 -999 -999
2003-04-14 14:09 51°13.51 2°51.54 -999 -999 -999 -999 -999
2003-04-14 14:10 51°13.62 2°51.85 -999 -999 -999 -999 -999
2003-04-14 14:11 51°13.73 2°52.16 -999 -999 -999 -999 -999
2003-04-14 14:12 51°13.78 2°52.38 -999 -999 -999 -999 -999
2003-04-14 14:13 51°13.82 2°52.48 -999 -999 -999 -999 -999
2003-04-14 14:14 51°13.85 2°52.52 -999 -999 -999 -999 -999
2003-04-14 14:15 51°13.88 2°52.55 -999 -999 -999 -999 -999
2003-04-14 14:16 51°13.9 2°52.57 -999 -999 -999 -999 -999
2003-04-14 14:17 51°13.93 2°52.63 -999 -999 -999 -999 -999
2003-04-14 14:18 51°14.05 2°52.86 -999 -999 -999 -999 -999
2003-04-14 14:19 51°14.16 2°53.14 -999 -999 -999 -999 -999
2003-04-14 14:20 51°14.28 2°53.42 -999 -999 -999 -999 -999
2003-04-14 14:21 51°14.39 2°53.69 -999 -999 -999 -999 -999
2003-04-14 14:22 51°14.47 2°53.98 -999 -999 -999 -999 -999
2003-04-14 14:23 51°14.49 2°54.29 -999 -999 -999 -999 -999
2003-04-14 14:24 51°14.48 2°54.58 -999 -999 -999 -999 -999
2003-04-14 14:25 51°14.42 2°54.86 -999 -999 -999 -999 -999
2003-04-14 14:26 51°14.34 2°55.11 -999 -999 -999 -999 -999